createdAt,value
2023-05-17T00:01:50.429Z,7.80
2023-05-17T00:04:20.007Z,7.80
2023-05-17T00:06:48.307Z,7.80
2023-05-17T00:09:16.573Z,7.80
2023-05-17T00:11:44.739Z,7.70
2023-05-17T00:14:13.050Z,7.70
2023-05-17T00:16:41.241Z,7.70
2023-05-17T00:19:10.432Z,7.70
2023-05-17T00:21:40.390Z,7.70
2023-05-17T00:24:09.175Z,7.60
2023-05-17T00:26:37.512Z,7.60
2023-05-17T00:29:06.119Z,7.60
2023-05-17T00:31:34.256Z,7.60
2023-05-17T00:34:02.537Z,7.50
2023-05-17T00:36:30.930Z,7.50
2023-05-17T00:39:00.494Z,7.40
2023-05-17T00:41:28.797Z,7.40
2023-05-17T00:43:57.097Z,7.30
2023-05-17T00:46:25.461Z,7.30
2023-05-17T00:48:54.040Z,7.20
2023-05-17T00:51:22.770Z,7.20
2023-05-17T00:53:51.788Z,7.10
2023-05-17T00:56:21.587Z,7.10
2023-05-17T00:58:50.405Z,7.00
2023-05-17T01:01:18.869Z,7.00
2023-05-17T01:03:47.443Z,6.90
2023-05-17T01:06:16.166Z,6.90
2023-05-17T01:08:45.615Z,6.80
2023-05-17T01:11:30.974Z,6.80
2023-05-17T01:14:14.303Z,6.80
2023-05-17T01:16:52.082Z,6.70
2023-05-17T01:19:56.053Z,6.70
2023-05-17T01:22:40.642Z,6.60
2023-05-17T01:25:36.821Z,6.60
2023-05-17T01:28:08.433Z,6.50
2023-05-17T01:30:38.987Z,6.50
2023-05-17T01:33:08.645Z,6.50
2023-05-17T01:35:36.908Z,6.50
2023-05-17T01:38:05.076Z,6.50
2023-05-17T01:40:37.656Z,6.50
2023-05-17T01:43:18.644Z,6.50
2023-05-17T01:46:01.690Z,6.40
2023-05-17T01:48:36.565Z,6.50
2023-05-17T01:51:06.729Z,6.50
2023-05-17T01:53:43.859Z,6.50
2023-05-17T01:56:21.034Z,6.50
2023-05-17T01:58:53.364Z,6.40
2023-05-17T02:01:24.798Z,6.50
2023-05-17T02:03:53.012Z,6.50
2023-05-17T02:06:21.227Z,6.50
2023-05-17T02:08:49.490Z,6.50
2023-05-17T02:11:17.655Z,6.40
2023-05-17T02:13:45.804Z,6.40
2023-05-17T02:16:15.385Z,6.40
2023-05-17T02:18:43.750Z,6.40
2023-05-17T02:21:13.305Z,6.40
2023-05-17T02:23:41.528Z,6.30
2023-05-17T02:26:09.754Z,6.30
2023-05-17T02:28:37.926Z,6.30
2023-05-17T02:31:06.176Z,6.30
2023-05-17T02:33:36.056Z,6.30
2023-05-17T02:36:04.843Z,6.30
2023-05-17T02:38:32.997Z,6.30
2023-05-17T02:41:01.160Z,6.20
2023-05-17T02:43:29.521Z,6.20
2023-05-17T02:45:57.793Z,6.20
2023-05-17T02:48:26.143Z,6.20
2023-05-17T02:50:55.695Z,6.20
2023-05-17T02:53:23.943Z,6.10
2023-05-17T02:55:52.416Z,6.10
2023-05-17T02:58:20.613Z,6.10
2023-05-17T03:00:48.799Z,6.00
2023-05-17T03:03:17.315Z,6.00
2023-05-17T03:05:45.758Z,6.00
2023-05-17T03:08:15.444Z,6.00
2023-05-17T03:10:43.802Z,5.90
2023-05-17T03:13:12.682Z,5.90
2023-05-17T03:15:41.802Z,5.90
2023-05-17T03:18:10.137Z,5.90
2023-05-17T03:20:40.637Z,5.80
2023-05-17T03:23:09.005Z,5.80
2023-05-17T03:25:46.886Z,5.80
2023-05-17T03:28:15.382Z,5.80
2023-05-17T03:30:44.018Z,5.80
2023-05-17T03:33:12.413Z,5.80
2023-05-17T03:35:40.589Z,5.70
2023-05-17T03:38:09.548Z,5.80
2023-05-17T03:40:37.884Z,5.70
2023-05-17T03:43:07.456Z,5.70
2023-05-17T03:45:36.554Z,5.70
2023-05-17T03:48:06.996Z,5.70
2023-05-17T03:50:35.339Z,5.70
2023-05-17T03:53:03.621Z,5.70
2023-05-17T03:55:32.436Z,5.70
2023-05-17T03:58:01.089Z,5.80
2023-05-17T04:00:30.717Z,5.80
2023-05-17T04:03:03.488Z,5.90
2023-05-17T04:05:32.768Z,6.00
2023-05-17T04:08:02.193Z,6.00
2023-05-17T04:10:30.564Z,6.10
2023-05-17T04:12:58.847Z,6.20
2023-05-17T04:15:27.418Z,6.20
2023-05-17T04:17:57.934Z,6.40
2023-05-17T04:20:26.386Z,6.40
2023-05-17T04:22:54.697Z,6.50
2023-05-17T04:25:24.577Z,6.60
2023-05-17T04:27:53.106Z,6.70
2023-05-17T04:30:23.986Z,6.80
2023-05-17T04:32:52.328Z,6.90
2023-05-17T04:35:22.216Z,7.00
2023-05-17T04:37:54.171Z,7.20
2023-05-17T04:40:23.773Z,7.30
2023-05-17T04:42:52.636Z,7.40
2023-05-17T04:45:21.732Z,7.50
2023-05-17T04:47:52.778Z,7.60
2023-05-17T04:50:22.682Z,7.70
2023-05-17T04:52:51.974Z,7.90
2023-05-17T04:55:20.254Z,8.00
2023-05-17T04:57:48.603Z,8.10
2023-05-17T05:00:20.859Z,8.20
2023-05-17T05:02:54.691Z,8.30
2023-05-17T05:05:25.642Z,8.40
2023-05-17T05:07:53.977Z,8.50
2023-05-17T05:10:23.224Z,8.60
2023-05-17T05:12:51.506Z,8.70
2023-05-17T05:15:20.278Z,8.80
2023-05-17T05:17:55.133Z,9.00
2023-05-17T05:20:27.136Z,9.10
2023-05-17T05:22:58.553Z,9.20
2023-05-17T05:25:28.366Z,9.30
2023-05-17T05:27:56.797Z,9.40
2023-05-17T05:30:25.505Z,9.50
2023-05-17T05:32:56.003Z,9.50
2023-05-17T05:35:30.115Z,9.60
2023-05-17T05:38:00.139Z,9.80
2023-05-17T05:40:28.923Z,9.90
2023-05-17T05:42:57.420Z,9.90
2023-05-17T05:45:25.589Z,10.00
2023-05-17T05:47:55.954Z,10.10
2023-05-17T05:50:25.630Z,10.20
2023-05-17T05:53:07.122Z,10.20
2023-05-17T05:55:43.454Z,10.30
2023-05-17T05:58:11.867Z,10.40
2023-05-17T06:00:40.313Z,10.40
2023-05-17T06:03:08.592Z,10.50
2023-05-17T06:05:38.500Z,10.50
2023-05-17T06:08:07.388Z,10.60
2023-05-17T06:10:35.739Z,10.70
2023-05-17T06:13:04.218Z,10.70
2023-05-17T06:15:33.299Z,10.70
2023-05-17T06:18:01.694Z,10.80
2023-05-17T06:20:30.262Z,10.80
2023-05-17T06:23:00.058Z,10.90
2023-05-17T06:25:28.247Z,11.00
2023-05-17T06:27:56.489Z,11.00
2023-05-17T06:30:24.705Z,11.00
2023-05-17T06:32:52.857Z,11.10
2023-05-17T06:35:21.034Z,11.10
2023-05-17T06:37:49.171Z,11.20
2023-05-17T06:40:18.863Z,11.20
2023-05-17T06:42:47.049Z,11.30
2023-05-17T06:45:15.366Z,11.30
2023-05-17T06:47:43.814Z,11.40
2023-05-17T06:50:12.415Z,11.40
2023-05-17T06:52:40.966Z,11.50
2023-05-17T06:55:10.275Z,11.60
2023-05-17T06:57:40.084Z,11.70
2023-05-17T07:00:11.360Z,11.80
2023-05-17T07:02:40.089Z,11.80
2023-05-17T07:05:09.486Z,12.00
2023-05-17T07:07:37.717Z,12.10
2023-05-17T07:10:07.474Z,12.30
2023-05-17T07:12:35.915Z,12.40
2023-05-17T07:15:06.574Z,12.50
2023-05-17T07:17:34.885Z,12.60
2023-05-17T07:20:03.308Z,12.70
2023-05-17T07:22:31.528Z,12.90
2023-05-17T07:24:59.894Z,13.00
2023-05-17T07:27:28.265Z,13.10
2023-05-17T07:29:59.106Z,13.30
2023-05-17T07:32:28.697Z,13.40
2023-05-17T07:34:56.975Z,13.50
2023-05-17T07:37:25.206Z,13.70
2023-05-17T07:39:53.366Z,13.80
2023-05-17T07:42:21.613Z,14.00
2023-05-17T07:44:49.943Z,14.10
2023-05-17T07:47:18.306Z,14.20
2023-05-17T07:49:48.030Z,14.40
2023-05-17T07:52:16.470Z,14.60
2023-05-17T07:54:44.786Z,14.70
2023-05-17T07:57:12.966Z,14.80
2023-05-17T07:59:41.214Z,14.90
2023-05-17T08:02:09.864Z,15.00
2023-05-17T08:04:38.409Z,15.10
2023-05-17T08:07:08.201Z,15.30
2023-05-17T08:09:36.413Z,15.40
2023-05-17T08:12:04.845Z,15.40
2023-05-17T08:14:33.176Z,15.50
2023-05-17T08:17:01.407Z,15.60
2023-05-17T08:19:29.727Z,15.60
2023-05-17T08:21:58.845Z,15.60
2023-05-17T08:24:28.366Z,15.60
2023-05-17T08:26:56.608Z,15.60
2023-05-17T08:29:24.879Z,15.60
2023-05-17T08:31:55.186Z,15.70
2023-05-17T08:34:23.482Z,15.80
2023-05-17T08:36:51.726Z,16.00
2023-05-17T08:39:20.462Z,16.00
2023-05-17T08:41:50.483Z,15.80
2023-05-17T08:44:18.733Z,15.70
2023-05-17T08:46:52.348Z,15.70
2023-05-17T08:49:23.775Z,15.70
2023-05-17T08:51:54.870Z,15.60
2023-05-17T08:54:23.462Z,15.70
2023-05-17T08:56:57.350Z,15.60
2023-05-17T08:59:33.550Z,15.60
2023-05-17T09:02:02.763Z,15.50
2023-05-17T09:04:31.562Z,15.40
2023-05-17T09:07:00.077Z,15.40
2023-05-17T09:09:28.373Z,15.20
2023-05-17T09:11:58.340Z,15.30
2023-05-17T09:14:33.316Z,15.30
2023-05-17T09:17:02.721Z,15.40
2023-05-17T09:19:32.720Z,15.40
2023-05-17T09:22:02.576Z,15.50
2023-05-17T09:24:31.601Z,15.60
2023-05-17T09:27:05.738Z,15.60
2023-05-17T09:29:34.955Z,15.60
2023-05-17T09:32:16.798Z,15.70
2023-05-17T09:34:48.356Z,15.60
2023-05-17T09:37:19.205Z,15.50
2023-05-17T09:39:48.880Z,15.50
2023-05-17T09:42:19.084Z,15.50
2023-05-17T09:44:53.224Z,15.40
2023-05-17T09:47:28.751Z,15.40
2023-05-17T09:50:00.516Z,15.30
2023-05-17T09:52:31.666Z,15.40
2023-05-17T09:55:02.538Z,15.50
2023-05-17T09:57:41.336Z,15.50
2023-05-17T10:00:12.418Z,15.60
2023-05-17T10:02:49.126Z,15.80
2023-05-17T10:05:19.985Z,16.00
2023-05-17T10:07:51.628Z,16.20
2023-05-17T10:10:20.758Z,16.20
2023-05-17T10:12:51.334Z,16.20
2023-05-17T10:15:20.383Z,16.10
2023-05-17T10:17:49.139Z,16.00
2023-05-17T10:20:18.807Z,15.90
2023-05-17T10:22:49.840Z,15.90
2023-05-17T10:25:18.435Z,15.90
2023-05-17T10:27:47.369Z,15.90
2023-05-17T10:30:19.284Z,15.90
2023-05-17T10:32:48.618Z,16.00
2023-05-17T10:35:17.945Z,16.20
2023-05-17T10:37:46.411Z,16.20
2023-05-17T10:40:14.720Z,16.10
2023-05-17T10:42:47.865Z,16.00
2023-05-17T10:45:17.673Z,16.00
2023-05-17T10:47:46.217Z,15.90
2023-05-17T10:50:15.339Z,15.90
2023-05-17T10:52:50.150Z,15.90
2023-05-17T10:55:22.991Z,16.00
2023-05-17T10:58:19.630Z,16.00
2023-05-17T11:00:55.172Z,15.90
2023-05-17T11:03:29.744Z,15.80
2023-05-17T11:06:24.346Z,15.60
2023-05-17T11:09:16.017Z,15.60
2023-05-17T11:12:06.855Z,15.50
2023-05-17T11:14:48.720Z,15.40
2023-05-17T11:17:20.936Z,15.40
2023-05-17T11:20:11.655Z,15.40
2023-05-17T11:22:43.480Z,15.30
2023-05-17T11:25:14.097Z,15.40
2023-05-17T11:27:47.140Z,15.30
2023-05-17T11:30:23.017Z,15.30
2023-05-17T11:32:54.857Z,15.20
2023-05-17T11:35:28.402Z,15.20
2023-05-17T11:38:15.244Z,15.20
2023-05-17T11:40:44.342Z,15.20
2023-05-17T11:43:17.688Z,15.10
2023-05-17T11:45:50.656Z,15.10
2023-05-17T11:48:23.822Z,15.00
2023-05-17T11:50:54.980Z,15.00
2023-05-17T11:53:23.392Z,15.00
2023-05-17T11:55:53.847Z,14.90
2023-05-17T11:58:27.301Z,14.90
2023-05-17T12:00:57.763Z,14.90
2023-05-17T12:03:29.903Z,14.90
2023-05-17T12:06:06.583Z,15.00
2023-05-17T12:08:37.204Z,15.10
2023-05-17T12:11:07.395Z,15.10
2023-05-17T12:13:36.871Z,15.10
2023-05-17T12:16:14.512Z,15.00
2023-05-17T12:18:48.889Z,14.90
2023-05-17T12:21:19.132Z,14.90
2023-05-17T12:23:51.536Z,14.80
2023-05-17T12:26:22.644Z,14.70
2023-05-17T12:28:57.296Z,14.60
2023-05-17T12:31:32.092Z,14.50
2023-05-17T12:34:03.126Z,14.50
2023-05-17T12:36:33.491Z,14.50
2023-05-17T12:39:05.561Z,14.50
2023-05-17T12:41:34.309Z,14.40
2023-05-17T12:44:14.705Z,14.40
2023-05-17T12:46:44.566Z,14.40
2023-05-17T12:49:14.212Z,14.40
2023-05-17T12:51:44.077Z,14.50
2023-05-17T12:54:13.928Z,14.60
2023-05-17T12:56:44.581Z,14.60
2023-05-17T12:59:14.704Z,14.70
2023-05-17T13:01:45.915Z,14.80
2023-05-17T13:04:17.785Z,14.90
2023-05-17T13:06:48.103Z,14.90
2023-05-17T13:09:18.479Z,15.00
2023-05-17T13:11:52.123Z,15.00
2023-05-17T13:14:38.893Z,15.00
2023-05-17T13:17:10.198Z,15.00
2023-05-17T13:19:40.408Z,15.00
2023-05-17T13:22:09.447Z,14.90
2023-05-17T13:24:39.725Z,14.80
2023-05-17T13:27:08.972Z,14.70
2023-05-17T13:29:40.675Z,14.70
2023-05-17T13:32:11.375Z,14.70
2023-05-17T13:34:41.815Z,14.70
2023-05-17T13:37:12.506Z,14.80
2023-05-17T13:39:42.020Z,14.80
2023-05-17T13:42:10.649Z,14.90
2023-05-17T13:44:39.298Z,15.00
2023-05-17T13:47:08.300Z,15.10
2023-05-17T13:49:37.232Z,15.20
2023-05-17T13:52:09.001Z,15.30
2023-05-17T13:54:39.029Z,15.40
2023-05-17T13:57:07.780Z,15.60
2023-05-17T13:59:36.182Z,15.60
2023-05-17T14:02:04.951Z,15.60
2023-05-17T14:04:33.407Z,15.60
2023-05-17T14:07:01.768Z,15.60
2023-05-17T14:09:33.760Z,15.50
2023-05-17T14:12:02.687Z,15.40
2023-05-17T14:14:31.658Z,15.30
2023-05-17T14:17:01.354Z,15.20
2023-05-17T14:19:29.751Z,15.20
2023-05-17T14:21:58.204Z,15.30
2023-05-17T14:24:26.430Z,15.40
2023-05-17T14:26:56.251Z,15.50
2023-05-17T14:29:24.623Z,15.60
2023-05-17T14:31:52.936Z,15.70
2023-05-17T14:34:21.161Z,16.00
2023-05-17T14:36:50.890Z,16.60
2023-05-17T14:39:19.135Z,17.10
2023-05-17T14:41:47.325Z,17.60
2023-05-17T14:44:16.927Z,17.90
2023-05-17T14:46:45.114Z,18.00
2023-05-17T14:49:13.662Z,18.00
2023-05-17T14:51:42.229Z,18.00
2023-05-17T14:54:12.206Z,17.80
2023-05-17T14:56:42.374Z,17.60
2023-05-17T14:59:10.642Z,17.60
2023-05-17T15:01:40.506Z,17.60
2023-05-17T15:04:09.387Z,17.60
2023-05-17T15:06:38.615Z,17.60
2023-05-17T15:09:07.800Z,17.80
2023-05-17T15:11:36.011Z,18.10
2023-05-17T15:14:04.253Z,18.70
2023-05-17T15:16:33.184Z,19.60
2023-05-17T15:19:03.128Z,20.10
2023-05-17T15:21:31.505Z,20.10
2023-05-17T15:23:59.635Z,19.80
2023-05-17T15:26:27.879Z,19.50
2023-05-17T15:28:56.011Z,19.30
2023-05-17T15:31:24.928Z,19.20
2023-05-17T15:33:53.210Z,19.10
2023-05-17T15:36:22.910Z,19.10
2023-05-17T15:38:51.159Z,19.10
2023-05-17T15:41:21.675Z,19.40
2023-05-17T15:43:49.844Z,19.90
2023-05-17T15:46:18.184Z,20.10
2023-05-17T15:48:46.504Z,20.20
2023-05-17T15:51:15.083Z,20.10
2023-05-17T15:53:44.576Z,19.90
2023-05-17T15:56:12.793Z,19.50
2023-05-17T15:58:40.990Z,19.20
2023-05-17T16:01:09.203Z,19.10
2023-05-17T16:03:37.779Z,19.10
2023-05-17T16:06:06.485Z,19.00
2023-05-17T16:08:34.751Z,18.80
2023-05-17T16:11:04.730Z,18.60
2023-05-17T16:13:32.988Z,18.50
2023-05-17T16:16:01.722Z,18.50
2023-05-17T16:18:31.125Z,18.70
2023-05-17T16:21:01.159Z,18.80
2023-05-17T16:23:29.358Z,18.90
2023-05-17T16:25:57.743Z,19.10
2023-05-17T16:28:27.493Z,19.50
2023-05-17T16:30:56.166Z,19.60
2023-05-17T16:33:24.541Z,19.60
2023-05-17T16:35:52.899Z,19.40
2023-05-17T16:38:21.115Z,19.30
2023-05-17T16:40:49.417Z,19.20
2023-05-17T16:43:17.587Z,19.30
2023-05-17T16:45:47.764Z,19.40
2023-05-17T16:48:17.485Z,19.30
2023-05-17T16:50:45.943Z,19.40
2023-05-17T16:53:14.252Z,19.30
2023-05-17T16:55:42.786Z,19.40
2023-05-17T16:58:10.933Z,19.30
2023-05-17T17:00:39.157Z,19.30
2023-05-17T17:03:09.769Z,19.30
2023-05-17T17:05:38.588Z,19.20
2023-05-17T17:08:07.091Z,19.00
2023-05-17T17:10:36.003Z,18.90
2023-05-17T17:13:04.866Z,18.70
2023-05-17T17:15:33.192Z,18.60
2023-05-17T17:18:01.676Z,18.40
2023-05-17T17:20:31.626Z,18.30
2023-05-17T17:23:00.065Z,18.20
2023-05-17T17:25:28.283Z,18.10
2023-05-17T17:27:56.500Z,18.00
2023-05-17T17:30:24.803Z,17.90
2023-05-17T17:32:53.144Z,17.80
2023-05-17T17:35:21.748Z,17.70
2023-05-17T17:37:53.102Z,17.60
2023-05-17T17:40:21.662Z,17.50
2023-05-17T17:42:49.865Z,17.50
2023-05-17T17:45:18.686Z,17.40
2023-05-17T17:47:47.020Z,17.30
2023-05-17T17:50:15.442Z,17.20
2023-05-17T17:52:43.642Z,17.00
2023-05-17T17:55:13.599Z,16.90
2023-05-17T17:57:41.842Z,16.80
2023-05-17T18:00:12.797Z,16.60
2023-05-17T18:02:41.028Z,16.50
2023-05-17T18:05:11.063Z,16.30
2023-05-17T18:07:39.414Z,16.20
2023-05-17T18:10:09.085Z,16.10
2023-05-17T18:12:38.774Z,15.90
2023-05-17T18:15:08.023Z,15.80
2023-05-17T18:17:36.318Z,15.70
2023-05-17T18:20:06.674Z,15.60
2023-05-17T18:22:35.601Z,15.50
2023-05-17T18:25:03.893Z,15.40
2023-05-17T18:27:32.223Z,15.30
2023-05-17T18:30:01.825Z,15.10
2023-05-17T18:32:30.167Z,15.00
2023-05-17T18:34:58.467Z,14.90
2023-05-17T18:37:26.737Z,14.70
2023-05-17T18:39:55.239Z,14.60
2023-05-17T18:42:24.913Z,14.50
2023-05-17T18:44:53.315Z,14.30
2023-05-17T18:47:23.564Z,14.20
2023-05-17T18:49:52.146Z,14.10
2023-05-17T18:52:20.753Z,13.90
2023-05-17T18:54:48.987Z,13.80
2023-05-17T18:57:17.219Z,13.60
2023-05-17T18:59:45.492Z,13.50
2023-05-17T19:02:13.690Z,13.40
2023-05-17T19:04:45.050Z,13.20
2023-05-17T19:07:13.413Z,13.10
2023-05-17T19:09:42.417Z,13.00
2023-05-17T19:12:11.712Z,12.80
2023-05-17T19:14:40.319Z,12.70
2023-05-17T19:17:10.048Z,12.60
2023-05-17T19:19:38.515Z,12.50
2023-05-17T19:22:10.549Z,12.40
2023-05-17T19:24:39.004Z,12.20
2023-05-17T19:27:07.592Z,12.20
2023-05-17T19:29:35.934Z,12.00
2023-05-17T19:32:04.582Z,12.00
2023-05-17T19:34:32.830Z,11.90
2023-05-17T19:37:01.062Z,11.80
2023-05-17T19:39:30.790Z,11.70
2023-05-17T19:41:58.921Z,11.60
2023-05-17T19:44:27.232Z,11.50
2023-05-17T19:46:55.741Z,11.40
2023-05-17T19:49:24.142Z,11.40
2023-05-17T19:51:54.128Z,11.30
2023-05-17T19:54:22.667Z,11.20
2023-05-17T19:56:52.353Z,11.10
2023-05-17T19:59:20.595Z,11.00
2023-05-17T20:01:48.869Z,11.00
2023-05-17T20:04:17.264Z,10.90
2023-05-17T20:06:45.965Z,10.80
2023-05-17T20:09:16.248Z,10.80
2023-05-17T20:11:44.491Z,10.70
2023-05-17T20:14:16.116Z,10.60
2023-05-17T20:16:44.377Z,10.60
2023-05-17T20:19:12.583Z,10.50
2023-05-17T20:21:42.077Z,10.50
2023-05-17T20:24:10.485Z,10.50
2023-05-17T20:26:38.749Z,10.40
2023-05-17T20:29:08.541Z,10.40
2023-05-17T20:31:38.890Z,10.40
2023-05-17T20:34:07.475Z,10.40
2023-05-17T20:36:35.774Z,10.30
2023-05-17T20:39:04.158Z,10.30
2023-05-17T20:41:32.402Z,10.30
2023-05-17T20:44:00.669Z,10.30
2023-05-17T20:46:29.834Z,10.20
2023-05-17T20:49:01.078Z,10.20
2023-05-17T20:51:29.362Z,10.10
2023-05-17T20:53:57.640Z,10.10
2023-05-17T20:56:25.964Z,10.00
2023-05-17T20:58:54.165Z,10.00
2023-05-17T21:01:22.577Z,10.00
2023-05-17T21:03:51.399Z,9.90
2023-05-17T21:06:22.245Z,9.90
2023-05-17T21:08:50.474Z,9.90
2023-05-17T21:11:21.391Z,9.80
2023-05-17T21:13:49.732Z,9.80
2023-05-17T21:16:18.745Z,9.80
2023-05-17T21:18:47.151Z,9.70
2023-05-17T21:21:15.464Z,9.70
2023-05-17T21:23:45.041Z,9.70
2023-05-17T21:26:14.133Z,9.60
2023-05-17T21:28:42.382Z,9.50
2023-05-17T21:31:10.885Z,9.50
2023-05-17T21:33:39.109Z,9.40
2023-05-17T21:36:07.714Z,9.40
2023-05-17T21:38:35.916Z,9.30
2023-05-17T21:41:05.469Z,9.20
2023-05-17T21:43:33.657Z,9.20
2023-05-17T21:46:01.959Z,9.10
2023-05-17T21:48:30.319Z,9.00
2023-05-17T21:50:58.531Z,9.00
2023-05-17T21:53:26.753Z,8.90
2023-05-17T21:56:02.160Z,8.90
2023-05-17T21:58:33.167Z,8.80
2023-05-17T22:01:02.370Z,8.70
2023-05-17T22:03:31.061Z,8.70
2023-05-17T22:05:59.395Z,8.60
2023-05-17T22:08:27.590Z,8.60
2023-05-17T22:10:57.003Z,8.50
2023-05-17T22:13:26.769Z,8.40
2023-05-17T22:15:57.353Z,8.40
2023-05-17T22:18:27.499Z,8.30
2023-05-17T22:20:59.136Z,8.20
2023-05-17T22:23:27.708Z,8.20
2023-05-17T22:25:57.072Z,8.10
2023-05-17T22:28:25.375Z,8.00
2023-05-17T22:30:54.955Z,8.00
2023-05-17T22:33:24.652Z,7.90
2023-05-17T22:35:54.127Z,7.90
2023-05-17T22:38:23.638Z,7.80
2023-05-17T22:40:51.980Z,7.70
2023-05-17T22:43:21.451Z,7.70
2023-05-17T22:45:51.220Z,7.70
2023-05-17T22:48:20.908Z,7.60
2023-05-17T22:50:50.606Z,7.60
2023-05-17T22:53:19.155Z,7.50
2023-05-17T22:55:49.011Z,7.50
2023-05-17T22:58:17.340Z,7.40
2023-05-17T23:00:45.967Z,7.40
2023-05-17T23:03:14.709Z,7.30
2023-05-17T23:05:43.242Z,7.30
2023-05-17T23:08:15.339Z,7.20
2023-05-17T23:10:45.201Z,7.20
2023-05-17T23:13:13.981Z,7.10
2023-05-17T23:15:46.483Z,7.10
2023-05-17T23:18:14.697Z,7.00
2023-05-17T23:20:43.075Z,7.00
2023-05-17T23:23:13.264Z,6.90
2023-05-17T23:25:41.518Z,6.80
2023-05-17T23:28:09.704Z,6.80
2023-05-17T23:30:39.950Z,6.70
2023-05-17T23:33:08.243Z,6.70
2023-05-17T23:35:36.476Z,6.70
2023-05-17T23:38:07.084Z,6.60
2023-05-17T23:40:37.016Z,6.60
2023-05-17T23:43:05.846Z,6.50
2023-05-17T23:45:34.169Z,6.40
2023-05-17T23:48:02.479Z,6.40
2023-05-17T23:50:30.709Z,6.40
2023-05-17T23:52:58.908Z,6.30
2023-05-17T23:55:27.449Z,6.30
2023-05-17T23:57:57.053Z,6.20
